sensor_id;sensor_type;location;lat;lon;timestamp;P1;P2;P0
47810;PMS5003;33575;52.600;7.318;2023-02-15T00:01:06;46;45;
47810;PMS5003;33575;52.600;7.318;2023-02-15T00:03:36;38;37;
47810;PMS5003;33575;52.600;7.318;2023-02-15T00:06:06;41;40;
47810;PMS5003;33575;52.600;7.318;2023-02-15T00:08:37;37;36;
47810;PMS5003;33575;52.600;7.318;2023-02-15T00:11:08;39;38;
47810;PMS5003;33575;52.600;7.318;2023-02-15T00:13:38;45;42;
47810;PMS5003;33575;52.600;7.318;2023-02-15T00:16:10;45;43;
47810;PMS5003;33575;52.600;7.318;2023-02-15T00:18:39;40;38;
47810;PMS5003;33575;52.600;7.318;2023-02-15T00:21:10;45;42;
47810;PMS5003;33575;52.600;7.318;2023-02-15T00:23:40;45;41;
47810;PMS5003;33575;52.600;7.318;2023-02-15T00:26:11;52;48;
47810;PMS5003;33575;52.600;7.318;2023-02-15T00:28:41;42;40;
47810;PMS5003;33575;52.600;7.318;2023-02-15T00:31:12;44;42;
47810;PMS5003;33575;52.600;7.318;2023-02-15T00:33:42;46;43;
47810;PMS5003;33575;52.600;7.318;2023-02-15T00:36:13;51;44;
47810;PMS5003;33575;52.600;7.318;2023-02-15T00:38:43;43;41;
47810;PMS5003;33575;52.600;7.318;2023-02-15T00:41:14;46;43;
47810;PMS5003;33575;52.600;7.318;2023-02-15T00:43:44;45;44;
47810;PMS5003;33575;52.600;7.318;2023-02-15T00:46:15;44;39;
47810;PMS5003;33575;52.600;7.318;2023-02-15T00:48:45;37;36;
47810;PMS5003;33575;52.600;7.318;2023-02-15T00:51:16;32;32;
47810;PMS5003;33575;52.600;7.318;2023-02-15T00:53:46;28;27;
47810;PMS5003;33575;52.600;7.318;2023-02-15T00:56:16;32;31;
47810;PMS5003;33575;52.600;7.318;2023-02-15T00:58:47;39;37;
47810;PMS5003;33575;52.600;7.318;2023-02-15T01:01:18;36;35;
47810;PMS5003;33575;52.600;7.318;2023-02-15T01:03:49;41;37;
47810;PMS5003;33575;52.600;7.318;2023-02-15T01:06:19;36;34;
47810;PMS5003;33575;52.600;7.318;2023-02-15T01:08:50;40;40;
47810;PMS5003;33575;52.600;7.318;2023-02-15T01:11:21;41;40;
47810;PMS5003;33575;52.600;7.318;2023-02-15T01:13:52;38;35;
47810;PMS5003;33575;52.600;7.318;2023-02-15T01:16:22;42;42;
47810;PMS5003;33575;52.600;7.318;2023-02-15T01:18:52;42;39;
47810;PMS5003;33575;52.600;7.318;2023-02-15T01:21:23;46;44;
47810;PMS5003;33575;52.600;7.318;2023-02-15T01:23:53;48;45;
47810;PMS5003;33575;52.600;7.318;2023-02-15T01:26:23;46;43;
47810;PMS5003;33575;52.600;7.318;2023-02-15T01:28:53;44;41;
47810;PMS5003;33575;52.600;7.318;2023-02-15T01:31:24;46;42;
47810;PMS5003;33575;52.600;7.318;2023-02-15T01:33:54;59;53;
47810;PMS5003;33575;52.600;7.318;2023-02-15T01:36:24;46;45;
47810;PMS5003;33575;52.600;7.318;2023-02-15T01:38:55;38;37;
47810;PMS5003;33575;52.600;7.318;2023-02-15T01:41:25;50;45;
47810;PMS5003;33575;52.600;7.318;2023-02-15T01:43:57;39;39;
47810;PMS5003;33575;52.600;7.318;2023-02-15T01:46:27;47;43;
47810;PMS5003;33575;52.600;7.318;2023-02-15T01:48:58;38;37;
47810;PMS5003;33575;52.600;7.318;2023-02-15T01:51:27;49;45;
47810;PMS5003;33575;52.600;7.318;2023-02-15T01:53:58;46;42;
47810;PMS5003;33575;52.600;7.318;2023-02-15T01:56:29;42;41;
47810;PMS5003;33575;52.600;7.318;2023-02-15T01:58:59;44;44;
47810;PMS5003;33575;52.600;7.318;2023-02-15T02:01:29;45;43;
47810;PMS5003;33575;52.600;7.318;2023-02-15T02:04:00;49;48;
47810;PMS5003;33575;52.600;7.318;2023-02-15T02:06:29;50;49;
47810;PMS5003;33575;52.600;7.318;2023-02-15T02:08:59;55;52;
47810;PMS5003;33575;52.600;7.318;2023-02-15T02:11:29;52;45;
47810;PMS5003;33575;52.600;7.318;2023-02-15T02:14:00;53;52;
47810;PMS5003;33575;52.600;7.318;2023-02-15T02:16:33;52;50;
47810;PMS5003;33575;52.600;7.318;2023-02-15T02:19:17;53;52;
47810;PMS5003;33575;52.600;7.318;2023-02-15T02:24:11;56;50;
47810;PMS5003;33575;52.600;7.318;2023-02-15T02:26:40;52;49;
47810;PMS5003;33575;52.600;7.318;2023-02-15T02:31:39;54;49;
47810;PMS5003;33575;52.600;7.318;2023-02-15T02:34:04;59;53;
47810;PMS5003;33575;52.600;7.318;2023-02-15T02:36:35;54;52;
47810;PMS5003;33575;52.600;7.318;2023-02-15T02:39:08;55;51;
47810;PMS5003;33575;52.600;7.318;2023-02-15T02:41:37;51;49;
47810;PMS5003;33575;52.600;7.318;2023-02-15T02:44:07;55;53;
47810;PMS5003;33575;52.600;7.318;2023-02-15T02:46:38;56;56;
47810;PMS5003;33575;52.600;7.318;2023-02-15T02:49:07;54;51;
47810;PMS5003;33575;52.600;7.318;2023-02-15T02:51:38;55;52;
47810;PMS5003;33575;52.600;7.318;2023-02-15T02:54:08;67;58;
47810;PMS5003;33575;52.600;7.318;2023-02-15T02:56:40;57;52;
47810;PMS5003;33575;52.600;7.318;2023-02-15T02:59:09;57;55;
47810;PMS5003;33575;52.600;7.318;2023-02-15T03:01:40;63;56;
47810;PMS5003;33575;52.600;7.318;2023-02-15T03:04:10;56;53;
47810;PMS5003;33575;52.600;7.318;2023-02-15T03:06:40;65;59;
47810;PMS5003;33575;52.600;7.318;2023-02-15T03:09:11;58;55;
47810;PMS5003;33575;52.600;7.318;2023-02-15T03:11:42;58;56;
47810;PMS5003;33575;52.600;7.318;2023-02-15T03:14:12;71;61;
47810;PMS5003;33575;52.600;7.318;2023-02-15T03:16:42;64;63;
47810;PMS5003;33575;52.600;7.318;2023-02-15T03:19:13;64;60;
47810;PMS5003;33575;52.600;7.318;2023-02-15T03:21:43;64;61;
47810;PMS5003;33575;52.600;7.318;2023-02-15T03:24:13;54;53;
47810;PMS5003;33575;52.600;7.318;2023-02-15T03:26:45;65;61;
47810;PMS5003;33575;52.600;7.318;2023-02-15T03:29:14;66;64;
47810;PMS5003;33575;52.600;7.318;2023-02-15T03:31:45;71;67;
47810;PMS5003;33575;52.600;7.318;2023-02-15T03:34:15;64;62;
47810;PMS5003;33575;52.600;7.318;2023-02-15T03:36:46;72;68;
47810;PMS5003;33575;52.600;7.318;2023-02-15T03:39:18;69;62;
47810;PMS5003;33575;52.600;7.318;2023-02-15T03:41:48;73;68;
47810;PMS5003;33575;52.600;7.318;2023-02-15T03:44:18;72;64;
47810;PMS5003;33575;52.600;7.318;2023-02-15T03:46:48;78;73;
47810;PMS5003;33575;52.600;7.318;2023-02-15T03:49:20;71;68;
47810;PMS5003;33575;52.600;7.318;2023-02-15T03:51:48;76;69;
47810;PMS5003;33575;52.600;7.318;2023-02-15T03:54:19;88;75;
47810;PMS5003;33575;52.600;7.318;2023-02-15T03:56:48;74;69;
47810;PMS5003;33575;52.600;7.318;2023-02-15T03:59:18;72;71;
47810;PMS5003;33575;52.600;7.318;2023-02-15T04:01:52;66;62;
47810;PMS5003;33575;52.600;7.318;2023-02-15T04:04:20;74;65;
47810;PMS5003;33575;52.600;7.318;2023-02-15T04:06:50;76;72;
47810;PMS5003;33575;52.600;7.318;2023-02-15T04:09:21;75;70;
47810;PMS5003;33575;52.600;7.318;2023-02-15T04:11:51;78;71;
47810;PMS5003;33575;52.600;7.318;2023-02-15T04:14:21;68;65;
47810;PMS5003;33575;52.600;7.318;2023-02-15T04:16:51;72;66;
47810;PMS5003;33575;52.600;7.318;2023-02-15T04:19:22;70;66;
47810;PMS5003;33575;52.600;7.318;2023-02-15T04:21:52;71;67;
47810;PMS5003;33575;52.600;7.318;2023-02-15T04:24:23;73;66;
47810;PMS5003;33575;52.600;7.318;2023-02-15T04:26:53;73;67;
47810;PMS5003;33575;52.600;7.318;2023-02-15T04:29:24;77;68;
47810;PMS5003;33575;52.600;7.318;2023-02-15T04:31:54;73;63;
47810;PMS5003;33575;52.600;7.318;2023-02-15T04:34:24;67;62;
47810;PMS5003;33575;52.600;7.318;2023-02-15T04:36:54;70;63;
47810;PMS5003;33575;52.600;7.318;2023-02-15T04:39:25;67;60;
47810;PMS5003;33575;52.600;7.318;2023-02-15T04:41:56;66;62;
47810;PMS5003;33575;52.600;7.318;2023-02-15T04:44:26;67;63;
47810;PMS5003;33575;52.600;7.318;2023-02-15T04:46:56;70;65;
47810;PMS5003;33575;52.600;7.318;2023-02-15T04:49:27;71;65;
47810;PMS5003;33575;52.600;7.318;2023-02-15T04:51:58;70;66;
47810;PMS5003;33575;52.600;7.318;2023-02-15T04:54:28;69;68;
47810;PMS5003;33575;52.600;7.318;2023-02-15T04:56:59;75;68;
47810;PMS5003;33575;52.600;7.318;2023-02-15T04:59:29;77;74;
47810;PMS5003;33575;52.600;7.318;2023-02-15T05:01:59;70;67;
47810;PMS5003;33575;52.600;7.318;2023-02-15T05:04:30;64;63;
47810;PMS5003;33575;52.600;7.318;2023-02-15T05:07:01;76;74;
47810;PMS5003;33575;52.600;7.318;2023-02-15T05:09:31;75;68;
47810;PMS5003;33575;52.600;7.318;2023-02-15T05:12:01;86;74;
47810;PMS5003;33575;52.600;7.318;2023-02-15T05:14:32;84;79;
47810;PMS5003;33575;52.600;7.318;2023-02-15T05:17:02;77;73;
47810;PMS5003;33575;52.600;7.318;2023-02-15T05:19:32;80;74;
47810;PMS5003;33575;52.600;7.318;2023-02-15T05:22:03;78;68;
47810;PMS5003;33575;52.600;7.318;2023-02-15T05:24:33;73;71;
47810;PMS5003;33575;52.600;7.318;2023-02-15T05:27:04;78;73;
47810;PMS5003;33575;52.600;7.318;2023-02-15T05:29:34;84;73;
47810;PMS5003;33575;52.600;7.318;2023-02-15T05:32:05;84;77;
47810;PMS5003;33575;52.600;7.318;2023-02-15T05:34:35;78;73;
47810;PMS5003;33575;52.600;7.318;2023-02-15T05:37:06;71;64;
47810;PMS5003;33575;52.600;7.318;2023-02-15T05:39:36;73;67;
47810;PMS5003;33575;52.600;7.318;2023-02-15T05:42:07;68;64;
47810;PMS5003;33575;52.600;7.318;2023-02-15T05:44:38;67;61;
47810;PMS5003;33575;52.600;7.318;2023-02-15T05:47:08;77;66;
47810;PMS5003;33575;52.600;7.318;2023-02-15T05:49:39;69;65;
47810;PMS5003;33575;52.600;7.318;2023-02-15T05:52:09;83;75;
47810;PMS5003;33575;52.600;7.318;2023-02-15T05:54:40;77;74;
47810;PMS5003;33575;52.600;7.318;2023-02-15T05:57:10;71;68;
47810;PMS5003;33575;52.600;7.318;2023-02-15T05:59:40;74;69;
47810;PMS5003;33575;52.600;7.318;2023-02-15T06:02:11;73;68;
47810;PMS5003;33575;52.600;7.318;2023-02-15T06:04:41;76;73;
47810;PMS5003;33575;52.600;7.318;2023-02-15T06:07:13;73;66;
47810;PMS5003;33575;52.600;7.318;2023-02-15T06:09:42;66;62;
47810;PMS5003;33575;52.600;7.318;2023-02-15T06:12:12;61;58;
47810;PMS5003;33575;52.600;7.318;2023-02-15T06:14:43;61;59;
47810;PMS5003;33575;52.600;7.318;2023-02-15T06:17:13;79;74;
47810;PMS5003;33575;52.600;7.318;2023-02-15T06:19:43;59;58;
47810;PMS5003;33575;52.600;7.318;2023-02-15T06:22:13;69;66;
47810;PMS5003;33575;52.600;7.318;2023-02-15T06:24:44;70;61;
47810;PMS5003;33575;52.600;7.318;2023-02-15T06:27:14;65;65;
47810;PMS5003;33575;52.600;7.318;2023-02-15T06:29:44;66;61;
47810;PMS5003;33575;52.600;7.318;2023-02-15T06:32:15;65;64;
47810;PMS5003;33575;52.600;7.318;2023-02-15T06:34:47;64;61;
47810;PMS5003;33575;52.600;7.318;2023-02-15T06:37:16;68;63;
47810;PMS5003;33575;52.600;7.318;2023-02-15T06:39:47;67;61;
47810;PMS5003;33575;52.600;7.318;2023-02-15T06:42:18;71;66;
47810;PMS5003;33575;52.600;7.318;2023-02-15T06:44:48;56;56;
47810;PMS5003;33575;52.600;7.318;2023-02-15T06:47:19;58;56;
47810;PMS5003;33575;52.600;7.318;2023-02-15T06:49:49;59;56;
47810;PMS5003;33575;52.600;7.318;2023-02-15T06:52:19;58;55;
47810;PMS5003;33575;52.600;7.318;2023-02-15T06:54:50;64;62;
47810;PMS5003;33575;52.600;7.318;2023-02-15T06:57:20;66;63;
47810;PMS5003;33575;52.600;7.318;2023-02-15T06:59:51;65;56;
47810;PMS5003;33575;52.600;7.318;2023-02-15T07:02:22;67;59;
47810;PMS5003;33575;52.600;7.318;2023-02-15T07:04:52;55;54;
47810;PMS5003;33575;52.600;7.318;2023-02-15T07:07:22;69;57;
47810;PMS5003;33575;52.600;7.318;2023-02-15T07:09:53;61;57;
47810;PMS5003;33575;52.600;7.318;2023-02-15T07:12:23;71;67;
47810;PMS5003;33575;52.600;7.318;2023-02-15T07:14:54;65;59;
47810;PMS5003;33575;52.600;7.318;2023-02-15T07:17:29;75;71;
47810;PMS5003;33575;52.600;7.318;2023-02-15T07:19:54;69;62;
47810;PMS5003;33575;52.600;7.318;2023-02-15T07:22:25;64;60;
47810;PMS5003;33575;52.600;7.318;2023-02-15T07:24:55;69;63;
47810;PMS5003;33575;52.600;7.318;2023-02-15T07:27:26;68;63;
47810;PMS5003;33575;52.600;7.318;2023-02-15T07:29:56;76;69;
47810;PMS5003;33575;52.600;7.318;2023-02-15T07:32:27;82;74;
47810;PMS5003;33575;52.600;7.318;2023-02-15T07:34:57;72;66;
47810;PMS5003;33575;52.600;7.318;2023-02-15T07:37:28;69;65;
47810;PMS5003;33575;52.600;7.318;2023-02-15T07:39:58;64;61;
47810;PMS5003;33575;52.600;7.318;2023-02-15T07:42:30;76;70;
47810;PMS5003;33575;52.600;7.318;2023-02-15T07:44:59;73;72;
47810;PMS5003;33575;52.600;7.318;2023-02-15T07:47:29;70;62;
47810;PMS5003;33575;52.600;7.318;2023-02-15T07:50:00;79;72;
47810;PMS5003;33575;52.600;7.318;2023-02-15T07:52:31;78;70;
47810;PMS5003;33575;52.600;7.318;2023-02-15T07:55:01;71;63;
47810;PMS5003;33575;52.600;7.318;2023-02-15T07:57:32;69;62;
47810;PMS5003;33575;52.600;7.318;2023-02-15T08:00:03;72;66;
47810;PMS5003;33575;52.600;7.318;2023-02-15T08:02:33;67;64;
47810;PMS5003;33575;52.600;7.318;2023-02-15T08:05:03;87;80;
47810;PMS5003;33575;52.600;7.318;2023-02-15T08:07:33;72;68;
47810;PMS5003;33575;52.600;7.318;2023-02-15T08:10:04;73;70;
47810;PMS5003;33575;52.600;7.318;2023-02-15T08:12:34;78;74;
47810;PMS5003;33575;52.600;7.318;2023-02-15T08:15:04;74;72;
47810;PMS5003;33575;52.600;7.318;2023-02-15T08:17:35;71;65;
47810;PMS5003;33575;52.600;7.318;2023-02-15T08:20:06;73;68;
47810;PMS5003;33575;52.600;7.318;2023-02-15T08:22:35;70;68;
47810;PMS5003;33575;52.600;7.318;2023-02-15T08:25:06;72;64;
47810;PMS5003;33575;52.600;7.318;2023-02-15T08:27:36;74;70;
47810;PMS5003;33575;52.600;7.318;2023-02-15T08:30:07;73;65;
47810;PMS5003;33575;52.600;7.318;2023-02-15T08:32:36;74;68;
47810;PMS5003;33575;52.600;7.318;2023-02-15T08:35:07;73;65;
47810;PMS5003;33575;52.600;7.318;2023-02-15T08:37:37;72;70;
47810;PMS5003;33575;52.600;7.318;2023-02-15T08:40:09;67;62;
47810;PMS5003;33575;52.600;7.318;2023-02-15T08:42:38;80;72;
47810;PMS5003;33575;52.600;7.318;2023-02-15T08:45:08;75;74;
47810;PMS5003;33575;52.600;7.318;2023-02-15T08:47:39;70;66;
47810;PMS5003;33575;52.600;7.318;2023-02-15T08:50:09;70;66;
47810;PMS5003;33575;52.600;7.318;2023-02-15T08:52:39;70;68;
47810;PMS5003;33575;52.600;7.318;2023-02-15T08:55:10;73;70;
47810;PMS5003;33575;52.600;7.318;2023-02-15T08:57:41;70;67;
47810;PMS5003;33575;52.600;7.318;2023-02-15T09:00:11;71;68;
47810;PMS5003;33575;52.600;7.318;2023-02-15T09:02:42;70;66;
47810;PMS5003;33575;52.600;7.318;2023-02-15T09:05:12;79;73;
47810;PMS5003;33575;52.600;7.318;2023-02-15T09:07:42;79;72;
47810;PMS5003;33575;52.600;7.318;2023-02-15T09:10:13;72;69;
47810;PMS5003;33575;52.600;7.318;2023-02-15T09:12:44;70;62;
47810;PMS5003;33575;52.600;7.318;2023-02-15T09:15:14;76;68;
47810;PMS5003;33575;52.600;7.318;2023-02-15T09:17:44;74;73;
47810;PMS5003;33575;52.600;7.318;2023-02-15T09:20:14;73;70;
47810;PMS5003;33575;52.600;7.318;2023-02-15T09:22:45;74;68;
47810;PMS5003;33575;52.600;7.318;2023-02-15T09:25:15;79;71;
47810;PMS5003;33575;52.600;7.318;2023-02-15T09:27:46;72;67;
47810;PMS5003;33575;52.600;7.318;2023-02-15T09:30:17;71;68;
47810;PMS5003;33575;52.600;7.318;2023-02-15T09:32:47;77;71;
47810;PMS5003;33575;52.600;7.318;2023-02-15T09:35:17;79;75;
47810;PMS5003;33575;52.600;7.318;2023-02-15T09:37:48;76;74;
47810;PMS5003;33575;52.600;7.318;2023-02-15T09:40:18;86;79;
47810;PMS5003;33575;52.600;7.318;2023-02-15T09:42:51;83;77;
47810;PMS5003;33575;52.600;7.318;2023-02-15T09:45:22;74;69;
47810;PMS5003;33575;52.600;7.318;2023-02-15T09:47:53;94;84;
47810;PMS5003;33575;52.600;7.318;2023-02-15T09:50:20;78;76;
47810;PMS5003;33575;52.600;7.318;2023-02-15T09:52:54;94;83;
47810;PMS5003;33575;52.600;7.318;2023-02-15T09:55:24;80;75;
47810;PMS5003;33575;52.600;7.318;2023-02-15T09:57:51;83;79;
47810;PMS5003;33575;52.600;7.318;2023-02-15T10:00:22;80;75;
47810;PMS5003;33575;52.600;7.318;2023-02-15T10:02:55;89;81;
47810;PMS5003;33575;52.600;7.318;2023-02-15T10:05:24;92;84;
47810;PMS5003;33575;52.600;7.318;2023-02-15T10:08:00;85;77;
47810;PMS5003;33575;52.600;7.318;2023-02-15T10:10:23;82;78;
47810;PMS5003;33575;52.600;7.318;2023-02-15T10:12:55;78;78;
47810;PMS5003;33575;52.600;7.318;2023-02-15T10:15:24;85;81;
47810;PMS5003;33575;52.600;7.318;2023-02-15T10:17:56;85;80;
47810;PMS5003;33575;52.600;7.318;2023-02-15T10:20:24;77;73;
47810;PMS5003;33575;52.600;7.318;2023-02-15T10:22:58;82;73;
47810;PMS5003;33575;52.600;7.318;2023-02-15T10:25:28;88;78;
47810;PMS5003;33575;52.600;7.318;2023-02-15T10:27:54;89;80;
47810;PMS5003;33575;52.600;7.318;2023-02-15T10:30:27;91;81;
47810;PMS5003;33575;52.600;7.318;2023-02-15T10:32:58;77;73;
47810;PMS5003;33575;52.600;7.318;2023-02-15T10:35:26;78;75;
47810;PMS5003;33575;52.600;7.318;2023-02-15T10:38:00;78;73;
47810;PMS5003;33575;52.600;7.318;2023-02-15T10:40:28;82;77;
47810;PMS5003;33575;52.600;7.318;2023-02-15T10:43:03;75;70;
47810;PMS5003;33575;52.600;7.318;2023-02-15T10:45:28;82;76;
47810;PMS5003;33575;52.600;7.318;2023-02-15T10:50:33;77;73;
47810;PMS5003;33575;52.600;7.318;2023-02-15T10:53:03;82;76;
47810;PMS5003;33575;52.600;7.318;2023-02-15T10:55:33;78;74;
47810;PMS5003;33575;52.600;7.318;2023-02-15T10:58:04;73;70;
47810;PMS5003;33575;52.600;7.318;2023-02-15T11:00:32;76;71;
47810;PMS5003;33575;52.600;7.318;2023-02-15T11:03:05;70;69;
47810;PMS5003;33575;52.600;7.318;2023-02-15T11:05:35;74;69;
47810;PMS5003;33575;52.600;7.318;2023-02-15T11:08:02;89;81;
47810;PMS5003;33575;52.600;7.318;2023-02-15T11:10:34;84;78;
47810;PMS5003;33575;52.600;7.318;2023-02-15T11:13:05;75;69;
47810;PMS5003;33575;52.600;7.318;2023-02-15T11:15:35;77;70;
47810;PMS5003;33575;52.600;7.318;2023-02-15T11:18:06;88;81;
47810;PMS5003;33575;52.600;7.318;2023-02-15T11:20:35;80;74;
47810;PMS5003;33575;52.600;7.318;2023-02-15T11:23:08;82;75;
47810;PMS5003;33575;52.600;7.318;2023-02-15T11:25:35;81;74;
47810;PMS5003;33575;52.600;7.318;2023-02-15T11:28:09;73;69;
47810;PMS5003;33575;52.600;7.318;2023-02-15T11:30:38;73;72;
47810;PMS5003;33575;52.600;7.318;2023-02-15T11:33:12;85;79;
47810;PMS5003;33575;52.600;7.318;2023-02-15T11:35:40;81;75;
47810;PMS5003;33575;52.600;7.318;2023-02-15T11:38:11;79;73;
47810;PMS5003;33575;52.600;7.318;2023-02-15T11:40:40;79;73;
47810;PMS5003;33575;52.600;7.318;2023-02-15T11:43:11;86;78;
47810;PMS5003;33575;52.600;7.318;2023-02-15T11:45:39;72;71;
47810;PMS5003;33575;52.600;7.318;2023-02-15T11:48:10;89;77;
47810;PMS5003;33575;52.600;7.318;2023-02-15T11:50:40;83;74;
47810;PMS5003;33575;52.600;7.318;2023-02-15T11:53:10;79;77;
47810;PMS5003;33575;52.600;7.318;2023-02-15T11:55:41;85;77;
47810;PMS5003;33575;52.600;7.318;2023-02-15T11:58:13;82;73;
47810;PMS5003;33575;52.600;7.318;2023-02-15T12:00:41;74;71;
47810;PMS5003;33575;52.600;7.318;2023-02-15T12:03:13;79;76;
47810;PMS5003;33575;52.600;7.318;2023-02-15T12:05:42;75;69;
47810;PMS5003;33575;52.600;7.318;2023-02-15T12:08:15;73;70;
47810;PMS5003;33575;52.600;7.318;2023-02-15T12:10:43;80;73;
47810;PMS5003;33575;52.600;7.318;2023-02-15T12:13:13;77;75;
47810;PMS5003;33575;52.600;7.318;2023-02-15T12:15:43;68;65;
47810;PMS5003;33575;52.600;7.318;2023-02-15T12:20:43;74;72;
47810;PMS5003;33575;52.600;7.318;2023-02-15T12:23:14;68;64;
47810;PMS5003;33575;52.600;7.318;2023-02-15T12:25:49;76;70;
47810;PMS5003;33575;52.600;7.318;2023-02-15T12:28:20;73;69;
47810;PMS5003;33575;52.600;7.318;2023-02-15T12:30:46;69;66;
47810;PMS5003;33575;52.600;7.318;2023-02-15T12:33:20;74;66;
47810;PMS5003;33575;52.600;7.318;2023-02-15T12:35:47;75;64;
47810;PMS5003;33575;52.600;7.318;2023-02-15T12:38:21;72;67;
47810;PMS5003;33575;52.600;7.318;2023-02-15T12:45:48;75;67;
47810;PMS5003;33575;52.600;7.318;2023-02-15T12:48:19;74;69;
47810;PMS5003;33575;52.600;7.318;2023-02-15T12:50:54;76;70;
47810;PMS5003;33575;52.600;7.318;2023-02-15T12:53:20;70;66;
47810;PMS5003;33575;52.600;7.318;2023-02-15T12:55:51;73;71;
47810;PMS5003;33575;52.600;7.318;2023-02-15T12:58:21;75;70;
47810;PMS5003;33575;52.600;7.318;2023-02-15T13:03:21;83;75;
47810;PMS5003;33575;52.600;7.318;2023-02-15T13:05:52;73;71;
47810;PMS5003;33575;52.600;7.318;2023-02-15T13:08:26;69;65;
47810;PMS5003;33575;52.600;7.318;2023-02-15T13:10:54;75;71;
47810;PMS5003;33575;52.600;7.318;2023-02-15T13:13:24;72;70;
47810;PMS5003;33575;52.600;7.318;2023-02-15T13:15:55;72;71;
47810;PMS5003;33575;52.600;7.318;2023-02-15T13:18:28;72;68;
47810;PMS5003;33575;52.600;7.318;2023-02-15T13:20:54;82;78;
47810;PMS5003;33575;52.600;7.318;2023-02-15T13:23:26;77;73;
47810;PMS5003;33575;52.600;7.318;2023-02-15T13:25:57;76;72;
47810;PMS5003;33575;52.600;7.318;2023-02-15T13:28:27;78;67;
47810;PMS5003;33575;52.600;7.318;2023-02-15T13:30:57;73;69;
47810;PMS5003;33575;52.600;7.318;2023-02-15T13:33:29;143;138;
47810;PMS5003;33575;52.600;7.318;2023-02-15T13:36:00;79;76;
47810;PMS5003;33575;52.600;7.318;2023-02-15T13:38:34;75;71;
47810;PMS5003;33575;52.600;7.318;2023-02-15T13:40:59;73;68;
47810;PMS5003;33575;52.600;7.318;2023-02-15T13:43:33;80;78;
47810;PMS5003;33575;52.600;7.318;2023-02-15T13:46:04;69;62;
47810;PMS5003;33575;52.600;7.318;2023-02-15T13:48:38;81;76;
47810;PMS5003;33575;52.600;7.318;2023-02-15T13:51:03;77;72;
47810;PMS5003;33575;52.600;7.318;2023-02-15T13:53:35;76;72;
47810;PMS5003;33575;52.600;7.318;2023-02-15T13:56:01;74;69;
47810;PMS5003;33575;52.600;7.318;2023-02-15T13:58:36;91;81;
47810;PMS5003;33575;52.600;7.318;2023-02-15T14:01:05;73;70;
47810;PMS5003;33575;52.600;7.318;2023-02-15T14:06:07;76;66;
47810;PMS5003;33575;52.600;7.318;2023-02-15T14:08:38;80;75;
47810;PMS5003;33575;52.600;7.318;2023-02-15T14:11:05;82;76;
47810;PMS5003;33575;52.600;7.318;2023-02-15T14:13:39;76;69;
47810;PMS5003;33575;52.600;7.318;2023-02-15T14:16:05;71;67;
47810;PMS5003;33575;52.600;7.318;2023-02-15T14:18:35;76;69;
47810;PMS5003;33575;52.600;7.318;2023-02-15T14:21:06;77;69;
47810;PMS5003;33575;52.600;7.318;2023-02-15T14:23:39;84;80;
47810;PMS5003;33575;52.600;7.318;2023-02-15T14:26:06;75;70;
47810;PMS5003;33575;52.600;7.318;2023-02-15T14:28:37;84;80;
47810;PMS5003;33575;52.600;7.318;2023-02-15T14:31:08;77;75;
47810;PMS5003;33575;52.600;7.318;2023-02-15T14:33:37;73;67;
47810;PMS5003;33575;52.600;7.318;2023-02-15T14:36:10;82;75;
47810;PMS5003;33575;52.600;7.318;2023-02-15T14:38:44;76;74;
47810;PMS5003;33575;52.600;7.318;2023-02-15T14:41:09;83;75;
47810;PMS5003;33575;52.600;7.318;2023-02-15T14:46:11;71;62;
47810;PMS5003;33575;52.600;7.318;2023-02-15T14:48:41;66;57;
47810;PMS5003;33575;52.600;7.318;2023-02-15T14:51:10;62;59;
47810;PMS5003;33575;52.600;7.318;2023-02-15T14:53:40;85;81;
47810;PMS5003;33575;52.600;7.318;2023-02-15T15:01:12;65;59;
47810;PMS5003;33575;52.600;7.318;2023-02-15T15:03:43;68;63;
47810;PMS5003;33575;52.600;7.318;2023-02-15T15:08:44;65;60;
47810;PMS5003;33575;52.600;7.318;2023-02-15T15:18:46;77;69;
47810;PMS5003;33575;52.600;7.318;2023-02-15T15:23:46;81;77;
47810;PMS5003;33575;52.600;7.318;2023-02-15T15:31:18;71;66;
47810;PMS5003;33575;52.600;7.318;2023-02-15T15:36:25;77;75;
47810;PMS5003;33575;52.600;7.318;2023-02-15T15:38:49;76;65;
47810;PMS5003;33575;52.600;7.318;2023-02-15T15:41:21;76;72;
47810;PMS5003;33575;52.600;7.318;2023-02-15T15:48:51;99;93;
47810;PMS5003;33575;52.600;7.318;2023-02-15T15:51:23;82;77;
47810;PMS5003;33575;52.600;7.318;2023-02-15T15:53:51;84;76;
47810;PMS5003;33575;52.600;7.318;2023-02-15T15:56:23;75;70;
47810;PMS5003;33575;52.600;7.318;2023-02-15T15:58:53;81;76;
47810;PMS5003;33575;52.600;7.318;2023-02-15T16:01:24;82;76;
47810;PMS5003;33575;52.600;7.318;2023-02-15T16:03:55;99;93;
47810;PMS5003;33575;52.600;7.318;2023-02-15T16:06:28;83;79;
47810;PMS5003;33575;52.600;7.318;2023-02-15T16:08:54;91;84;
47810;PMS5003;33575;52.600;7.318;2023-02-15T16:11:24;85;76;
47810;PMS5003;33575;52.600;7.318;2023-02-15T16:13:54;85;78;
47810;PMS5003;33575;52.600;7.318;2023-02-15T16:16:26;96;87;
47810;PMS5003;33575;52.600;7.318;2023-02-15T16:18:55;94;85;
47810;PMS5003;33575;52.600;7.318;2023-02-15T16:21:27;112;107;
47810;PMS5003;33575;52.600;7.318;2023-02-15T16:24:01;161;154;
47810;PMS5003;33575;52.600;7.318;2023-02-15T16:28:58;211;206;
47810;PMS5003;33575;52.600;7.318;2023-02-15T16:31:27;190;183;
47810;PMS5003;33575;52.600;7.318;2023-02-15T16:33:57;134;129;
47810;PMS5003;33575;52.600;7.318;2023-02-15T16:36:28;91;85;
47810;PMS5003;33575;52.600;7.318;2023-02-15T16:41:29;72;66;
47810;PMS5003;33575;52.600;7.318;2023-02-15T16:44:00;74;68;
47810;PMS5003;33575;52.600;7.318;2023-02-15T16:46:30;73;65;
47810;PMS5003;33575;52.600;7.318;2023-02-15T16:49:02;71;67;
47810;PMS5003;33575;52.600;7.318;2023-02-15T16:51:32;76;70;
47810;PMS5003;33575;52.600;7.318;2023-02-15T16:54:03;72;65;
47810;PMS5003;33575;52.600;7.318;2023-02-15T16:56:32;66;61;
47810;PMS5003;33575;52.600;7.318;2023-02-15T16:59:02;65;61;
47810;PMS5003;33575;52.600;7.318;2023-02-15T17:01:33;63;59;
47810;PMS5003;33575;52.600;7.318;2023-02-15T17:06:33;69;64;
47810;PMS5003;33575;52.600;7.318;2023-02-15T17:09:04;64;61;
47810;PMS5003;33575;52.600;7.318;2023-02-15T17:11:34;64;55;
47810;PMS5003;33575;52.600;7.318;2023-02-15T17:16:35;59;53;
47810;PMS5003;33575;52.600;7.318;2023-02-15T17:19:08;61;55;
47810;PMS5003;33575;52.600;7.318;2023-02-15T17:21:37;63;58;
47810;PMS5003;33575;52.600;7.318;2023-02-15T17:26:37;67;61;
47810;PMS5003;33575;52.600;7.318;2023-02-15T17:29:10;60;57;
47810;PMS5003;33575;52.600;7.318;2023-02-15T17:31:37;66;59;
47810;PMS5003;33575;52.600;7.318;2023-02-15T17:34:09;60;54;
47810;PMS5003;33575;52.600;7.318;2023-02-15T17:36:38;64;60;
47810;PMS5003;33575;52.600;7.318;2023-02-15T17:41:39;67;62;
47810;PMS5003;33575;52.600;7.318;2023-02-15T17:44:09;65;63;